sensor_id;sensor_type;location;lat;lon;timestamp;P1;durP1;ratioP1;P2;durP2;ratioP2
1693;SDS011;844;47.058;15.472;2023-03-03T00:00:13;22.23;;;19.83;;
1693;SDS011;844;47.058;15.472;2023-03-03T00:02:45;22.20;;;19.80;;
1693;SDS011;844;47.058;15.472;2023-03-03T00:05:15;20.40;;;18.30;;
1693;SDS011;844;47.058;15.472;2023-03-03T00:07:46;23.87;;;19.20;;
1693;SDS011;844;47.058;15.472;2023-03-03T00:10:18;25.50;;;19.93;;
1693;SDS011;844;47.058;15.472;2023-03-03T00:12:49;20.60;;;18.07;;
1693;SDS011;844;47.058;15.472;2023-03-03T00:15:19;25.03;;;20.40;;
1693;SDS011;844;47.058;15.472;2023-03-03T00:17:51;19.77;;;17.60;;
1693;SDS011;844;47.058;15.472;2023-03-03T00:20:29;21.60;;;19.20;;
1693;SDS011;844;47.058;15.472;2023-03-03T00:26:03;22.03;;;18.83;;
1693;SDS011;844;47.058;15.472;2023-03-03T00:28:43;21.50;;;19.20;;
1693;SDS011;844;47.058;15.472;2023-03-03T00:31:15;19.43;;;17.60;;
1693;SDS011;844;47.058;15.472;2023-03-03T00:33:48;22.90;;;17.47;;
1693;SDS011;844;47.058;15.472;2023-03-03T00:36:23;21.73;;;18.87;;
1693;SDS011;844;47.058;15.472;2023-03-03T00:39:09;21.07;;;17.33;;
1693;SDS011;844;47.058;15.472;2023-03-03T00:41:49;22.50;;;19.70;;
1693;SDS011;844;47.058;15.472;2023-03-03T00:44:28;20.70;;;17.30;;
1693;SDS011;844;47.058;15.472;2023-03-03T00:47:24;20.50;;;17.70;;
1693;SDS011;844;47.058;15.472;2023-03-03T00:50:20;20.07;;;17.27;;
1693;SDS011;844;47.058;15.472;2023-03-03T00:53:00;22.63;;;19.10;;
1693;SDS011;844;47.058;15.472;2023-03-03T00:55:35;21.00;;;18.90;;
1693;SDS011;844;47.058;15.472;2023-03-03T00:58:08;20.93;;;18.70;;
1693;SDS011;844;47.058;15.472;2023-03-03T01:00:39;20.13;;;18.10;;
1693;SDS011;844;47.058;15.472;2023-03-03T01:03:11;22.63;;;19.73;;
1693;SDS011;844;47.058;15.472;2023-03-03T01:05:43;24.10;;;20.63;;
1693;SDS011;844;47.058;15.472;2023-03-03T01:08:13;19.97;;;17.87;;
1693;SDS011;844;47.058;15.472;2023-03-03T01:10:45;19.17;;;17.27;;
1693;SDS011;844;47.058;15.472;2023-03-03T01:13:21;20.93;;;17.93;;
1693;SDS011;844;47.058;15.472;2023-03-03T01:15:54;20.77;;;18.60;;
1693;SDS011;844;47.058;15.472;2023-03-03T01:18:24;24.30;;;20.50;;
1693;SDS011;844;47.058;15.472;2023-03-03T01:20:55;21.63;;;19.43;;
1693;SDS011;844;47.058;15.472;2023-03-03T01:23:26;21.90;;;19.70;;
1693;SDS011;844;47.058;15.472;2023-03-03T01:25:56;22.20;;;18.30;;
1693;SDS011;844;47.058;15.472;2023-03-03T01:28:28;20.40;;;18.30;;
1693;SDS011;844;47.058;15.472;2023-03-03T01:30:59;20.33;;;18.23;;
1693;SDS011;844;47.058;15.472;2023-03-03T01:33:30;19.37;;;17.50;;
1693;SDS011;844;47.058;15.472;2023-03-03T01:36:00;21.17;;;18.70;;
1693;SDS011;844;47.058;15.472;2023-03-03T01:38:32;21.87;;;19.50;;
1693;SDS011;844;47.058;15.472;2023-03-03T01:41:04;20.37;;;18.23;;
1693;SDS011;844;47.058;15.472;2023-03-03T01:43:41;23.23;;;19.90;;
1693;SDS011;844;47.058;15.472;2023-03-03T01:46:24;20.73;;;18.60;;
1693;SDS011;844;47.058;15.472;2023-03-03T01:49:06;23.23;;;18.43;;
1693;SDS011;844;47.058;15.472;2023-03-03T01:51:44;20.10;;;18.10;;
1693;SDS011;844;47.058;15.472;2023-03-03T01:54:17;20.17;;;18.10;;
1693;SDS011;844;47.058;15.472;2023-03-03T01:56:52;23.23;;;17.87;;
1693;SDS011;844;47.058;15.472;2023-03-03T01:59:27;20.27;;;18.17;;
1693;SDS011;844;47.058;15.472;2023-03-03T02:02:02;22.20;;;19.90;;
1693;SDS011;844;47.058;15.472;2023-03-03T02:04:34;22.10;;;19.80;;
1693;SDS011;844;47.058;15.472;2023-03-03T02:07:05;19.90;;;17.70;;
1693;SDS011;844;47.058;15.472;2023-03-03T02:09:41;23.03;;;20.20;;
1693;SDS011;844;47.058;15.472;2023-03-03T02:12:18;22.23;;;19.73;;
1693;SDS011;844;47.058;15.472;2023-03-03T02:14:52;20.80;;;18.83;;
1693;SDS011;844;47.058;15.472;2023-03-03T02:17:22;19.13;;;17.07;;
1693;SDS011;844;47.058;15.472;2023-03-03T02:19:56;23.10;;;20.50;;
1693;SDS011;844;47.058;15.472;2023-03-03T02:22:33;21.83;;;19.10;;
1693;SDS011;844;47.058;15.472;2023-03-03T02:25:09;25.47;;;19.37;;
1693;SDS011;844;47.058;15.472;2023-03-03T02:27:45;22.57;;;20.17;;
1693;SDS011;844;47.058;15.472;2023-03-03T02:30:16;20.50;;;18.40;;
1693;SDS011;844;47.058;15.472;2023-03-03T02:32:49;21.20;;;18.93;;
1693;SDS011;844;47.058;15.472;2023-03-03T02:35:24;22.10;;;19.00;;
1693;SDS011;844;47.058;15.472;2023-03-03T02:38:01;22.50;;;19.07;;
1693;SDS011;844;47.058;15.472;2023-03-03T02:40:39;20.93;;;18.73;;
1693;SDS011;844;47.058;15.472;2023-03-03T02:43:15;20.73;;;18.70;;
1693;SDS011;844;47.058;15.472;2023-03-03T02:45:47;19.40;;;17.50;;
1693;SDS011;844;47.058;15.472;2023-03-03T02:48:17;19.67;;;17.73;;
1693;SDS011;844;47.058;15.472;2023-03-03T02:50:47;20.27;;;18.17;;
1693;SDS011;844;47.058;15.472;2023-03-03T02:53:18;20.40;;;18.00;;
1693;SDS011;844;47.058;15.472;2023-03-03T02:55:48;19.77;;;17.67;;
1693;SDS011;844;47.058;15.472;2023-03-03T02:58:20;20.07;;;18.10;;
1693;SDS011;844;47.058;15.472;2023-03-03T03:00:50;21.50;;;18.40;;
1693;SDS011;844;47.058;15.472;2023-03-03T03:03:21;19.87;;;17.87;;
1693;SDS011;844;47.058;15.472;2023-03-03T03:05:51;20.27;;;18.17;;
1693;SDS011;844;47.058;15.472;2023-03-03T03:08:21;22.03;;;18.77;;
1693;SDS011;844;47.058;15.472;2023-03-03T03:10:52;19.43;;;17.63;;
1693;SDS011;844;47.058;15.472;2023-03-03T03:13:26;19.67;;;17.70;;
1693;SDS011;844;47.058;15.472;2023-03-03T03:15:57;24.10;;;18.23;;
1693;SDS011;844;47.058;15.472;2023-03-03T03:18:27;21.47;;;18.57;;
1693;SDS011;844;47.058;15.472;2023-03-03T03:21:04;20.10;;;18.03;;
1693;SDS011;844;47.058;15.472;2023-03-03T03:23:35;18.90;;;17.00;;
1693;SDS011;844;47.058;15.472;2023-03-03T03:26:05;19.80;;;17.70;;
1693;SDS011;844;47.058;15.472;2023-03-03T03:28:38;18.70;;;16.80;;
1693;SDS011;844;47.058;15.472;2023-03-03T03:31:09;24.07;;;18.80;;
1693;SDS011;844;47.058;15.472;2023-03-03T03:33:44;18.63;;;16.67;;
1693;SDS011;844;47.058;15.472;2023-03-03T03:36:15;20.70;;;18.57;;
1693;SDS011;844;47.058;15.472;2023-03-03T03:38:46;25.23;;;18.53;;
1693;SDS011;844;47.058;15.472;2023-03-03T03:41:17;23.30;;;18.43;;
1693;SDS011;844;47.058;15.472;2023-03-03T03:43:49;20.90;;;18.60;;
1693;SDS011;844;47.058;15.472;2023-03-03T03:46:19;21.53;;;19.33;;
1693;SDS011;844;47.058;15.472;2023-03-03T03:48:49;20.60;;;18.53;;
1693;SDS011;844;47.058;15.472;2023-03-03T03:51:20;22.47;;;18.77;;
1693;SDS011;844;47.058;15.472;2023-03-03T03:53:50;20.73;;;18.70;;
1693;SDS011;844;47.058;15.472;2023-03-03T03:56:20;20.23;;;18.13;;
1693;SDS011;844;47.058;15.472;2023-03-03T03:58:52;21.00;;;18.80;;
1693;SDS011;844;47.058;15.472;2023-03-03T04:01:22;20.37;;;17.70;;
1693;SDS011;844;47.058;15.472;2023-03-03T04:03:52;20.13;;;17.97;;
1693;SDS011;844;47.058;15.472;2023-03-03T04:06:23;19.97;;;17.20;;
1693;SDS011;844;47.058;15.472;2023-03-03T04:08:54;21.40;;;18.50;;
1693;SDS011;844;47.058;15.472;2023-03-03T04:11:24;19.77;;;17.80;;
1693;SDS011;844;47.058;15.472;2023-03-03T04:13:56;23.73;;;18.33;;
1693;SDS011;844;47.058;15.472;2023-03-03T04:16:25;20.90;;;17.43;;
1693;SDS011;844;47.058;15.472;2023-03-03T04:18:56;24.10;;;17.27;;
1693;SDS011;844;47.058;15.472;2023-03-03T04:21:25;19.83;;;17.73;;
1693;SDS011;844;47.058;15.472;2023-03-03T04:23:55;18.60;;;16.73;;
1693;SDS011;844;47.058;15.472;2023-03-03T04:26:26;21.23;;;19.10;;
1693;SDS011;844;47.058;15.472;2023-03-03T04:28:59;22.87;;;20.57;;
1693;SDS011;844;47.058;15.472;2023-03-03T04:31:29;22.63;;;17.83;;
1693;SDS011;844;47.058;15.472;2023-03-03T04:33:59;19.20;;;16.93;;
1693;SDS011;844;47.058;15.472;2023-03-03T04:36:29;19.87;;;17.83;;
1693;SDS011;844;47.058;15.472;2023-03-03T04:39:00;22.70;;;17.60;;
1693;SDS011;844;47.058;15.472;2023-03-03T04:41:31;20.60;;;18.40;;
1693;SDS011;844;47.058;15.472;2023-03-03T04:44:03;20.50;;;17.40;;
1693;SDS011;844;47.058;15.472;2023-03-03T04:46:33;20.57;;;18.53;;
1693;SDS011;844;47.058;15.472;2023-03-03T04:49:04;21.30;;;17.57;;
1693;SDS011;844;47.058;15.472;2023-03-03T04:51:38;19.83;;;17.60;;
1693;SDS011;844;47.058;15.472;2023-03-03T04:54:08;20.47;;;18.47;;
1693;SDS011;844;47.058;15.472;2023-03-03T04:56:39;18.30;;;16.50;;
1693;SDS011;844;47.058;15.472;2023-03-03T04:59:12;20.40;;;17.13;;
1693;SDS011;844;47.058;15.472;2023-03-03T05:01:42;18.60;;;16.67;;
1693;SDS011;844;47.058;15.472;2023-03-03T05:04:13;20.70;;;18.63;;
1693;SDS011;844;47.058;15.472;2023-03-03T05:06:43;21.10;;;17.83;;
1693;SDS011;844;47.058;15.472;2023-03-03T05:09:14;23.57;;;21.07;;
1693;SDS011;844;47.058;15.472;2023-03-03T05:11:44;20.67;;;18.57;;
1693;SDS011;844;47.058;15.472;2023-03-03T05:14:16;20.53;;;18.40;;
1693;SDS011;844;47.058;15.472;2023-03-03T05:16:46;21.50;;;19.40;;
1693;SDS011;844;47.058;15.472;2023-03-03T05:19:16;22.13;;;19.73;;
1693;SDS011;844;47.058;15.472;2023-03-03T05:21:47;21.87;;;18.77;;
1693;SDS011;844;47.058;15.472;2023-03-03T05:24:17;20.43;;;18.43;;
1693;SDS011;844;47.058;15.472;2023-03-03T05:26:47;20.70;;;18.50;;
1693;SDS011;844;47.058;15.472;2023-03-03T05:29:20;22.63;;;19.37;;
1693;SDS011;844;47.058;15.472;2023-03-03T05:31:50;20.47;;;18.37;;
1693;SDS011;844;47.058;15.472;2023-03-03T05:34:21;23.73;;;19.80;;
1693;SDS011;844;47.058;15.472;2023-03-03T05:36:51;19.67;;;17.67;;
1693;SDS011;844;47.058;15.472;2023-03-03T05:39:21;22.10;;;19.90;;
1693;SDS011;844;47.058;15.472;2023-03-03T05:41:51;20.73;;;18.33;;
1693;SDS011;844;47.058;15.472;2023-03-03T05:44:25;21.13;;;18.83;;
1693;SDS011;844;47.058;15.472;2023-03-03T05:46:55;20.63;;;17.47;;
1693;SDS011;844;47.058;15.472;2023-03-03T05:49:26;22.23;;;19.27;;
1693;SDS011;844;47.058;15.472;2023-03-03T05:51:56;20.23;;;17.00;;
1693;SDS011;844;47.058;15.472;2023-03-03T05:54:27;22.33;;;20.03;;
1693;SDS011;844;47.058;15.472;2023-03-03T05:56:58;26.70;;;20.30;;
1693;SDS011;844;47.058;15.472;2023-03-03T05:59:30;20.50;;;18.43;;
1693;SDS011;844;47.058;15.472;2023-03-03T06:02:02;19.33;;;17.33;;
1693;SDS011;844;47.058;15.472;2023-03-03T06:04:32;21.47;;;19.27;;
1693;SDS011;844;47.058;15.472;2023-03-03T06:07:02;21.57;;;19.27;;
1693;SDS011;844;47.058;15.472;2023-03-03T06:09:33;21.57;;;19.27;;
1693;SDS011;844;47.058;15.472;2023-03-03T06:12:04;22.60;;;19.27;;
1693;SDS011;844;47.058;15.472;2023-03-03T06:14:35;22.97;;;19.97;;
1693;SDS011;844;47.058;15.472;2023-03-03T06:17:06;20.20;;;18.17;;
1693;SDS011;844;47.058;15.472;2023-03-03T06:19:37;23.77;;;20.17;;
1693;SDS011;844;47.058;15.472;2023-03-03T06:22:08;24.37;;;20.73;;
1693;SDS011;844;47.058;15.472;2023-03-03T06:24:39;25.47;;;19.10;;
1693;SDS011;844;47.058;15.472;2023-03-03T06:27:10;23.60;;;20.37;;
1693;SDS011;844;47.058;15.472;2023-03-03T06:29:41;22.83;;;19.67;;
1693;SDS011;844;47.058;15.472;2023-03-03T06:32:11;23.03;;;19.70;;
1693;SDS011;844;47.058;15.472;2023-03-03T06:34:43;24.20;;;20.30;;
1693;SDS011;844;47.058;15.472;2023-03-03T06:37:13;23.10;;;20.40;;
1693;SDS011;844;47.058;15.472;2023-03-03T06:39:44;25.33;;;20.37;;
1693;SDS011;844;47.058;15.472;2023-03-03T06:42:14;25.07;;;22.40;;
1693;SDS011;844;47.058;15.472;2023-03-03T06:44:47;22.30;;;20.10;;
1693;SDS011;844;47.058;15.472;2023-03-03T06:47:18;23.30;;;19.30;;
1693;SDS011;844;47.058;15.472;2023-03-03T06:49:48;22.93;;;20.30;;
1693;SDS011;844;47.058;15.472;2023-03-03T06:52:19;21.67;;;19.37;;
1693;SDS011;844;47.058;15.472;2023-03-03T06:54:51;22.67;;;20.37;;
1693;SDS011;844;47.058;15.472;2023-03-03T06:57:24;22.67;;;20.27;;
1693;SDS011;844;47.058;15.472;2023-03-03T07:00:00;21.20;;;17.33;;
1693;SDS011;844;47.058;15.472;2023-03-03T07:02:39;21.70;;;19.27;;
1693;SDS011;844;47.058;15.472;2023-03-03T07:05:12;23.33;;;21.13;;
1693;SDS011;844;47.058;15.472;2023-03-03T07:07:45;22.80;;;19.93;;
1693;SDS011;844;47.058;15.472;2023-03-03T07:10:18;26.33;;;21.73;;
1693;SDS011;844;47.058;15.472;2023-03-03T07:12:52;23.23;;;20.80;;
1693;SDS011;844;47.058;15.472;2023-03-03T07:15:25;22.23;;;19.80;;
1693;SDS011;844;47.058;15.472;2023-03-03T07:18:01;22.97;;;20.57;;
1693;SDS011;844;47.058;15.472;2023-03-03T07:20:32;23.13;;;20.33;;
1693;SDS011;844;47.058;15.472;2023-03-03T07:23:08;22.30;;;20.00;;
1693;SDS011;844;47.058;15.472;2023-03-03T07:25:43;21.93;;;19.83;;
1693;SDS011;844;47.058;15.472;2023-03-03T07:28:21;22.93;;;20.53;;
1693;SDS011;844;47.058;15.472;2023-03-03T07:30:55;24.67;;;21.13;;
1693;SDS011;844;47.058;15.472;2023-03-03T07:33:27;23.70;;;21.13;;
1693;SDS011;844;47.058;15.472;2023-03-03T07:36:00;22.50;;;20.03;;
1693;SDS011;844;47.058;15.472;2023-03-03T07:38:33;23.90;;;20.70;;
1693;SDS011;844;47.058;15.472;2023-03-03T07:41:08;23.63;;;21.43;;
1693;SDS011;844;47.058;15.472;2023-03-03T07:43:42;22.97;;;20.57;;
1693;SDS011;844;47.058;15.472;2023-03-03T07:46:27;23.77;;;21.03;;
1693;SDS011;844;47.058;15.472;2023-03-03T07:48:59;24.20;;;21.60;;
1693;SDS011;844;47.058;15.472;2023-03-03T07:51:35;24.30;;;21.80;;
1693;SDS011;844;47.058;15.472;2023-03-03T07:54:23;22.03;;;19.30;;
1693;SDS011;844;47.058;15.472;2023-03-03T07:56:57;24.20;;;19.90;;
1693;SDS011;844;47.058;15.472;2023-03-03T07:59:37;25.03;;;21.60;;
1693;SDS011;844;47.058;15.472;2023-03-03T08:02:15;23.33;;;20.90;;
1693;SDS011;844;47.058;15.472;2023-03-03T08:04:59;24.27;;;21.63;;
1693;SDS011;844;47.058;15.472;2023-03-03T08:07:31;22.47;;;20.13;;
1693;SDS011;844;47.058;15.472;2023-03-03T08:10:07;24.57;;;22.00;;
1693;SDS011;844;47.058;15.472;2023-03-03T08:13:08;24.80;;;22.27;;
1693;SDS011;844;47.058;15.472;2023-03-03T08:15:44;25.53;;;21.93;;
1693;SDS011;844;47.058;15.472;2023-03-03T08:18:20;23.63;;;21.13;;
1693;SDS011;844;47.058;15.472;2023-03-03T08:20:56;22.43;;;20.20;;
1693;SDS011;844;47.058;15.472;2023-03-03T08:23:28;23.87;;;21.47;;
1693;SDS011;844;47.058;15.472;2023-03-03T08:25:58;22.70;;;20.20;;
1693;SDS011;844;47.058;15.472;2023-03-03T08:28:28;26.10;;;23.20;;
1693;SDS011;844;47.058;15.472;2023-03-03T08:30:59;23.13;;;20.67;;
1693;SDS011;844;47.058;15.472;2023-03-03T08:33:50;27.27;;;24.47;;
1693;SDS011;844;47.058;15.472;2023-03-03T08:36:33;26.57;;;20.77;;
1693;SDS011;844;47.058;15.472;2023-03-03T08:39:04;22.57;;;20.23;;
1693;SDS011;844;47.058;15.472;2023-03-03T08:41:35;22.83;;;20.50;;
1693;SDS011;844;47.058;15.472;2023-03-03T08:44:10;24.87;;;22.37;;
1693;SDS011;844;47.058;15.472;2023-03-03T08:46:41;21.50;;;19.37;;
1693;SDS011;844;47.058;15.472;2023-03-03T08:49:12;22.43;;;20.20;;
1693;SDS011;844;47.058;15.472;2023-03-03T08:52:06;23.80;;;21.27;;
1693;SDS011;844;47.058;15.472;2023-03-03T08:54:36;35.43;;;22.47;;
1693;SDS011;844;47.058;15.472;2023-03-03T08:57:06;26.77;;;21.57;;
1693;SDS011;844;47.058;15.472;2023-03-03T08:59:37;23.97;;;21.37;;
1693;SDS011;844;47.058;15.472;2023-03-03T09:02:08;26.20;;;22.80;;
1693;SDS011;844;47.058;15.472;2023-03-03T09:04:38;26.23;;;21.03;;
1693;SDS011;844;47.058;15.472;2023-03-03T09:07:09;23.17;;;20.73;;
1693;SDS011;844;47.058;15.472;2023-03-03T09:09:41;25.20;;;20.70;;
1693;SDS011;844;47.058;15.472;2023-03-03T09:12:13;22.33;;;19.93;;
1693;SDS011;844;47.058;15.472;2023-03-03T09:14:45;21.57;;;19.57;;
1693;SDS011;844;47.058;15.472;2023-03-03T09:17:18;26.73;;;22.57;;
1693;SDS011;844;47.058;15.472;2023-03-03T09:19:54;22.17;;;19.87;;
1693;SDS011;844;47.058;15.472;2023-03-03T09:22:30;24.50;;;21.93;;
1693;SDS011;844;47.058;15.472;2023-03-03T09:25:05;29.63;;;22.13;;
1693;SDS011;844;47.058;15.472;2023-03-03T09:27:47;23.17;;;20.77;;
1693;SDS011;844;47.058;15.472;2023-03-03T09:30:27;22.30;;;19.53;;
1693;SDS011;844;47.058;15.472;2023-03-03T09:36:00;22.77;;;20.43;;
1693;SDS011;844;47.058;15.472;2023-03-03T09:38:43;22.67;;;19.67;;
1693;SDS011;844;47.058;15.472;2023-03-03T09:41:30;28.40;;;20.60;;
1693;SDS011;844;47.058;15.472;2023-03-03T09:44:15;21.60;;;19.17;;
1693;SDS011;844;47.058;15.472;2023-03-03T09:47:00;26.20;;;19.77;;
1693;SDS011;844;47.058;15.472;2023-03-03T09:49:50;20.73;;;18.63;;
1693;SDS011;844;47.058;15.472;2023-03-03T09:52:32;27.10;;;19.53;;
1693;SDS011;844;47.058;15.472;2023-03-03T09:58:08;22.63;;;18.63;;
1693;SDS011;844;47.058;15.472;2023-03-03T10:00:49;26.90;;;19.50;;
1693;SDS011;844;47.058;15.472;2023-03-03T10:03:38;20.70;;;18.10;;
1693;SDS011;844;47.058;15.472;2023-03-03T10:06:30;23.00;;;17.50;;
1693;SDS011;844;47.058;15.472;2023-03-03T10:09:12;17.73;;;14.03;;
1693;SDS011;844;47.058;15.472;2023-03-03T10:12:11;13.63;;;12.30;;
1693;SDS011;844;47.058;15.472;2023-03-03T10:14:52;21.10;;;17.00;;
1693;SDS011;844;47.058;15.472;2023-03-03T10:17:39;17.87;;;15.20;;
1693;SDS011;844;47.058;15.472;2023-03-03T10:20:26;18.97;;;14.50;;
1693;SDS011;844;47.058;15.472;2023-03-03T10:23:20;17.47;;;15.17;;
1693;SDS011;844;47.058;15.472;2023-03-03T10:26:00;16.37;;;14.67;;
1693;SDS011;844;47.058;15.472;2023-03-03T10:31:36;16.50;;;14.17;;
1693;SDS011;844;47.058;15.472;2023-03-03T10:34:16;16.27;;;12.87;;
1693;SDS011;844;47.058;15.472;2023-03-03T10:37:01;16.10;;;14.20;;
1693;SDS011;844;47.058;15.472;2023-03-03T10:39:44;19.83;;;14.97;;
1693;SDS011;844;47.058;15.472;2023-03-03T10:42:31;17.47;;;13.60;;
1693;SDS011;844;47.058;15.472;2023-03-03T10:45:23;16.10;;;14.30;;
1693;SDS011;844;47.058;15.472;2023-03-03T10:48:07;18.57;;;12.67;;
1693;SDS011;844;47.058;15.472;2023-03-03T10:50:46;16.67;;;14.33;;
1693;SDS011;844;47.058;15.472;2023-03-03T10:53:24;16.67;;;14.93;;
1693;SDS011;844;47.058;15.472;2023-03-03T10:56:04;14.60;;;13.10;;
1693;SDS011;844;47.058;15.472;2023-03-03T10:58:52;15.70;;;14.00;;
1693;SDS011;844;47.058;15.472;2023-03-03T11:01:33;17.33;;;13.60;;
1693;SDS011;844;47.058;15.472;2023-03-03T11:04:23;15.57;;;13.83;;
1693;SDS011;844;47.058;15.472;2023-03-03T11:07:14;18.93;;;14.00;;
1693;SDS011;844;47.058;15.472;2023-03-03T11:09:56;15.40;;;13.90;;
1693;SDS011;844;47.058;15.472;2023-03-03T11:12:42;16.30;;;14.60;;
1693;SDS011;844;47.058;15.472;2023-03-03T11:15:21;18.60;;;12.50;;
1693;SDS011;844;47.058;15.472;2023-03-03T11:18:11;15.73;;;13.77;;
1693;SDS011;844;47.058;15.472;2023-03-03T11:20:47;15.77;;;14.17;;
1693;SDS011;844;47.058;15.472;2023-03-03T11:23:25;17.17;;;13.07;;
1693;SDS011;844;47.058;15.472;2023-03-03T11:26:08;16.00;;;14.03;;
1693;SDS011;844;47.058;15.472;2023-03-03T11:28:46;18.53;;;14.20;;
1693;SDS011;844;47.058;15.472;2023-03-03T11:31:23;15.53;;;13.93;;
1693;SDS011;844;47.058;15.472;2023-03-03T11:34:02;17.50;;;13.07;;
1693;SDS011;844;47.058;15.472;2023-03-03T11:36:38;15.00;;;13.50;;
1693;SDS011;844;47.058;15.472;2023-03-03T11:39:15;20.57;;;12.90;;
1693;SDS011;844;47.058;15.472;2023-03-03T11:41:51;18.67;;;13.80;;
1693;SDS011;844;47.058;15.472;2023-03-03T11:44:28;16.67;;;12.30;;
1693;SDS011;844;47.058;15.472;2023-03-03T11:47:02;16.73;;;15.13;;
1693;SDS011;844;47.058;15.472;2023-03-03T11:49:36;16.30;;;14.60;;
1693;SDS011;844;47.058;15.472;2023-03-03T11:52:13;18.47;;;14.90;;
1693;SDS011;844;47.058;15.472;2023-03-03T11:54:55;14.53;;;12.93;;
1693;SDS011;844;47.058;15.472;2023-03-03T11:57:34;16.70;;;15.10;;
1693;SDS011;844;47.058;15.472;2023-03-03T12:00:21;17.83;;;14.23;;
1693;SDS011;844;47.058;15.472;2023-03-03T12:03:01;16.63;;;13.77;;
1693;SDS011;844;47.058;15.472;2023-03-03T12:08:43;15.97;;;14.27;;
1693;SDS011;844;47.058;15.472;2023-03-03T12:11:31;16.70;;;13.23;;
1693;SDS011;844;47.058;15.472;2023-03-03T12:14:07;17.33;;;14.80;;
1693;SDS011;844;47.058;15.472;2023-03-03T12:16:48;18.80;;;13.40;;
1693;SDS011;844;47.058;15.472;2023-03-03T12:19:25;18.70;;;12.57;;
1693;SDS011;844;47.058;15.472;2023-03-03T12:22:17;14.97;;;12.90;;
1693;SDS011;844;47.058;15.472;2023-03-03T12:25:01;15.63;;;14.07;;
1693;SDS011;844;47.058;15.472;2023-03-03T12:27:40;15.47;;;13.87;;
1693;SDS011;844;47.058;15.472;2023-03-03T12:30:19;15.90;;;12.87;;
1693;SDS011;844;47.058;15.472;2023-03-03T12:33:00;17.73;;;14.20;;
1693;SDS011;844;47.058;15.472;2023-03-03T12:35:41;15.73;;;13.83;;
1693;SDS011;844;47.058;15.472;2023-03-03T12:38:20;15.80;;;14.00;;
1693;SDS011;844;47.058;15.472;2023-03-03T12:41:01;16.10;;;13.93;;
1693;SDS011;844;47.058;15.472;2023-03-03T12:43:40;16.00;;;12.93;;
1693;SDS011;844;47.058;15.472;2023-03-03T12:46:18;14.30;;;12.77;;
1693;SDS011;844;47.058;15.472;2023-03-03T12:48:55;16.73;;;13.73;;
1693;SDS011;844;47.058;15.472;2023-03-03T12:51:30;18.17;;;13.43;;
1693;SDS011;844;47.058;15.472;2023-03-03T12:54:12;17.40;;;14.07;;
1693;SDS011;844;47.058;15.472;2023-03-03T12:56:53;15.17;;;13.60;;
1693;SDS011;844;47.058;15.472;2023-03-03T12:59:26;17.17;;;13.80;;
1693;SDS011;844;47.058;15.472;2023-03-03T13:02:11;15.83;;;14.10;;
1693;SDS011;844;47.058;15.472;2023-03-03T13:05:04;18.50;;;13.53;;
1693;SDS011;844;47.058;15.472;2023-03-03T13:07:46;16.77;;;14.83;;
1693;SDS011;844;47.058;15.472;2023-03-03T13:10:22;16.73;;;15.10;;
1693;SDS011;844;47.058;15.472;2023-03-03T13:12:56;16.30;;;14.67;;
1693;SDS011;844;47.058;15.472;2023-03-03T13:15:29;15.80;;;14.20;;
1693;SDS011;844;47.058;15.472;2023-03-03T13:18:10;16.60;;;14.37;;
1693;SDS011;844;47.058;15.472;2023-03-03T13:20:48;18.00;;;14.57;;
1693;SDS011;844;47.058;15.472;2023-03-03T13:23:26;19.77;;;15.07;;
1693;SDS011;844;47.058;15.472;2023-03-03T13:26:09;14.17;;;12.87;;
1693;SDS011;844;47.058;15.472;2023-03-03T13:28:48;14.17;;;12.70;;
1693;SDS011;844;47.058;15.472;2023-03-03T13:31:28;15.13;;;13.63;;
1693;SDS011;844;47.058;15.472;2023-03-03T13:34:01;16.00;;;14.40;;
1693;SDS011;844;47.058;15.472;2023-03-03T13:36:33;16.77;;;15.00;;
1693;SDS011;844;47.058;15.472;2023-03-03T13:39:12;15.37;;;13.80;;
1693;SDS011;844;47.058;15.472;2023-03-03T13:41:50;21.30;;;14.27;;
1693;SDS011;844;47.058;15.472;2023-03-03T13:44:24;17.30;;;14.40;;
1693;SDS011;844;47.058;15.472;2023-03-03T13:47:02;15.27;;;13.67;;
1693;SDS011;844;47.058;15.472;2023-03-03T13:49:44;16.73;;;14.83;;
1693;SDS011;844;47.058;15.472;2023-03-03T13:52:22;17.00;;;14.70;;
1693;SDS011;844;47.058;15.472;2023-03-03T13:55:07;15.47;;;13.70;;
1693;SDS011;844;47.058;15.472;2023-03-03T13:57:52;14.20;;;12.80;;
1693;SDS011;844;47.058;15.472;2023-03-03T14:00:41;16.50;;;13.77;;
1693;SDS011;844;47.058;15.472;2023-03-03T14:03:22;13.70;;;12.40;;
1693;SDS011;844;47.058;15.472;2023-03-03T14:06:16;16.17;;;13.73;;
1693;SDS011;844;47.058;15.472;2023-03-03T14:08:50;16.03;;;13.73;;
1693;SDS011;844;47.058;15.472;2023-03-03T14:11:28;15.70;;;14.30;;
1693;SDS011;844;47.058;15.472;2023-03-03T14:14:06;14.90;;;13.23;;
1693;SDS011;844;47.058;15.472;2023-03-03T14:16:48;15.93;;;13.07;;
1693;SDS011;844;47.058;15.472;2023-03-03T14:19:22;16.23;;;14.57;;
1693;SDS011;844;47.058;15.472;2023-03-03T14:22:00;27.43;;;17.27;;
1693;SDS011;844;47.058;15.472;2023-03-03T14:27:33;21.57;;;15.80;;
1693;SDS011;844;47.058;15.472;2023-03-03T14:30:25;19.53;;;15.40;;
1693;SDS011;844;47.058;15.472;2023-03-03T14:33:02;14.60;;;13.10;;
1693;SDS011;844;47.058;15.472;2023-03-03T14:36:05;16.17;;;14.67;;
1693;SDS011;844;47.058;15.472;2023-03-03T14:38:45;15.27;;;12.60;;
1693;SDS011;844;47.058;15.472;2023-03-03T14:41:18;16.47;;;13.03;;
1693;SDS011;844;47.058;15.472;2023-03-03T14:43:57;14.63;;;13.10;;
1693;SDS011;844;47.058;15.472;2023-03-03T14:46:34;20.43;;;13.57;;
1693;SDS011;844;47.058;15.472;2023-03-03T14:49:12;13.40;;;12.20;;
1693;SDS011;844;47.058;15.472;2023-03-03T14:51:46;14.17;;;12.83;;
1693;SDS011;844;47.058;15.472;2023-03-03T14:54:23;12.97;;;11.50;;
1693;SDS011;844;47.058;15.472;2023-03-03T14:56:59;13.87;;;12.60;;
1693;SDS011;844;47.058;15.472;2023-03-03T14:59:34;15.80;;;14.30;;
1693;SDS011;844;47.058;15.472;2023-03-03T15:02:23;15.43;;;13.60;;
1693;SDS011;844;47.058;15.472;2023-03-03T15:05:15;14.73;;;13.33;;
1693;SDS011;844;47.058;15.472;2023-03-03T15:07:51;19.03;;;14.17;;
1693;SDS011;844;47.058;15.472;2023-03-03T15:10:27;15.63;;;13.30;;
1693;SDS011;844;47.058;15.472;2023-03-03T15:13:23;15.43;;;13.93;;
1693;SDS011;844;47.058;15.472;2023-03-03T15:16:03;15.67;;;12.90;;
1693;SDS011;844;47.058;15.472;2023-03-03T15:18:54;13.97;;;12.67;;
1693;SDS011;844;47.058;15.472;2023-03-03T15:21:39;15.47;;;13.60;;
1693;SDS011;844;47.058;15.472;2023-03-03T15:24:17;13.87;;;12.50;;
1693;SDS011;844;47.058;15.472;2023-03-03T15:26:51;31.10;;;15.97;;
1693;SDS011;844;47.058;15.472;2023-03-03T15:29:26;14.50;;;13.10;;
1693;SDS011;844;47.058;15.472;2023-03-03T15:32:03;15.93;;;13.73;;
1693;SDS011;844;47.058;15.472;2023-03-03T15:34:40;19.17;;;13.47;;
1693;SDS011;844;47.058;15.472;2023-03-03T15:37:22;17.63;;;14.17;;
1693;SDS011;844;47.058;15.472;2023-03-03T15:40:03;15.33;;;12.87;;
1693;SDS011;844;47.058;15.472;2023-03-03T15:42:40;14.37;;;12.97;;
1693;SDS011;844;47.058;15.472;2023-03-03T15:45:16;15.57;;;13.97;;
1693;SDS011;844;47.058;15.472;2023-03-03T15:47:54;13.53;;;12.17;;
1693;SDS011;844;47.058;15.472;2023-03-03T15:50:44;15.47;;;13.30;;
1693;SDS011;844;47.058;15.472;2023-03-03T15:53:24;18.47;;;13.57;;
1693;SDS011;844;47.058;15.472;2023-03-03T15:56:09;16.27;;;13.30;;
1693;SDS011;844;47.058;15.472;2023-03-03T15:58:52;15.27;;;13.50;;